Time;durP1;ratioP1;P1;durP2;ratioP2;P2;SDS_P1;SDS_P2;PMS_P1;PMS_P2;Temp;Humidity;BMP_temperature;BMP_pressure;BME280_temperature;BME280_humidity;BME280_pressure;Samples;Min_cycle;Max_cycle;Signal;HPM_P1;HPM_P2
2023/06/01 04:01:19;;;;;;;11.03;2.57;;;12.70;99.90;;;;;;5562031;23;20594;-73
2023/06/01 04:03:48;;;;;;;2.45;2.08;;;12.70;99.90;;;;;;4967790;28;20975;-72
2023/06/01 04:06:17;;;;;;;1.63;1.50;;;12.70;99.90;;;;;;4967651;28;20205;-73
2023/06/01 04:08:48;;;;;;;1.13;1.13;;;12.80;99.90;;;;;;4965615;28;20472;-73
2023/06/01 04:11:15;;;;;;;3.03;2.00;;;12.80;99.90;;;;;;4968688;28;20496;-73
2023/06/01 04:13:42;;;;;;;2.43;1.77;;;12.80;99.90;;;;;;4965515;28;20559;-73
2023/06/01 04:16:08;;;;;;;1.90;1.90;;;12.70;99.90;;;;;;4965103;28;20824;-72
2023/06/01 04:18:36;;;;;;;1.87;1.77;;;12.80;99.90;;;;;;4963573;28;20843;-73
2023/06/01 04:21:03;;;;;;;4.10;1.17;;;12.80;99.90;;;;;;4961172;28;20495;-72
2023/06/01 04:23:31;;;;;;;1.07;1.07;;;12.90;99.90;;;;;;4967340;28;20959;-73
2023/06/01 04:25:59;;;;;;;1.60;1.50;;;12.80;99.90;;;;;;4968372;28;20558;-73
2023/06/01 04:28:26;;;;;;;2.53;1.67;;;12.80;99.90;;;;;;4991572;23;20689;-72
2023/06/01 04:30:54;;;;;;;5.97;2.03;;;12.80;99.90;;;;;;4987079;28;20207;-72
2023/06/01 04:33:22;;;;;;;1.23;1.23;;;12.80;99.90;;;;;;4990245;28;20570;-72
2023/06/01 04:35:52;;;;;;;1.13;1.13;;;12.80;99.90;;;;;;4983682;28;20506;-72
2023/06/01 04:38:19;;;;;;;1.50;1.50;;;12.80;99.90;;;;;;4982371;28;20498;-72
2023/06/01 04:40:46;;;;;;;6.77;1.47;;;12.80;99.90;;;;;;4989576;28;21020;-72
2023/06/01 04:43:13;;;;;;;2.27;2.17;;;12.80;99.90;;;;;;4986344;28;20979;-71
2023/06/01 04:45:41;;;;;;;10.40;2.13;;;12.80;99.90;;;;;;4986204;28;20462;-72
2023/06/01 04:48:08;;;;;;;5.33;2.43;;;12.80;99.90;;;;;;4984418;28;21026;-72
2023/06/01 04:50:35;;;;;;;7.33;1.63;;;12.90;99.90;;;;;;4987386;28;20467;-72
2023/06/01 04:53:03;;;;;;;2.10;1.10;;;12.90;99.90;;;;;;4986448;28;20471;-72
2023/06/01 04:55:30;;;;;;;1.57;1.57;;;13.00;99.90;;;;;;4986019;28;20471;-72
2023/06/01 04:57:56;;;;;;;1.60;0.90;;;13.00;99.90;;;;;;4988661;28;20505;-72
2023/06/01 05:00:23;;;;;;;1.57;1.47;;;12.90;99.90;;;;;;4988875;28;20555;-72
2023/06/01 05:02:50;;;;;;;8.43;2.23;;;12.90;99.90;;;;;;4982204;28;20464;-72
2023/06/01 05:05:17;;;;;;;1.10;1.10;;;12.90;99.90;;;;;;4977486;28;20941;-72
2023/06/01 05:07:44;;;;;;;1.97;1.87;;;13.00;99.90;;;;;;4984240;28;20971;-72
2023/06/01 05:10:13;;;;;;;2.20;2.10;;;13.00;99.90;;;;;;4988406;28;20462;-72
2023/06/01 05:12:39;;;;;;;6.27;3.23;;;13.10;99.90;;;;;;4989429;28;20494;-72
2023/06/01 05:15:08;;;;;;;3.23;2.30;;;13.00;99.90;;;;;;4987664;28;20458;-72
2023/06/01 05:17:35;;;;;;;1.27;1.27;;;13.10;99.90;;;;;;4983762;28;20494;-72
2023/06/01 05:20:03;;;;;;;2.63;1.80;;;13.10;99.90;;;;;;4984927;28;20995;-72
2023/06/01 05:22:30;;;;;;;10.20;1.97;;;13.10;99.90;;;;;;4982574;28;20489;-72
2023/06/01 05:24:57;;;;;;;10.73;2.87;;;13.10;99.90;;;;;;4979126;28;20474;-72
2023/06/01 05:27:25;;;;;;;1.47;1.40;;;13.10;99.90;;;;;;4985085;28;20470;-72
2023/06/01 05:29:52;;;;;;;3.27;1.30;;;13.20;99.90;;;;;;4981442;28;20578;-72
2023/06/01 05:32:18;;;;;;;1.10;1.10;;;13.30;99.90;;;;;;4976748;28;20468;-71
2023/06/01 05:34:45;;;;;;;1.50;1.30;;;13.40;99.90;;;;;;4980815;28;20483;-71
2023/06/01 05:37:12;;;;;;;2.00;1.70;;;13.30;99.90;;;;;;4987674;28;20505;-71
2023/06/01 05:39:39;;;;;;;1.30;1.30;;;13.40;99.90;;;;;;4986496;28;20482;-71
2023/06/01 05:42:06;;;;;;;3.60;2.00;;;13.50;99.90;;;;;;4986566;28;20982;-72
2023/06/01 05:44:34;;;;;;;5.30;1.63;;;13.50;99.90;;;;;;4977065;28;20556;-72
2023/06/01 05:47:01;;;;;;;2.73;1.63;;;13.50;99.90;;;;;;4985178;28;21060;-72
2023/06/01 05:49:31;;;;;;;1.50;1.40;;;13.50;99.90;;;;;;4986259;28;20519;-72
2023/06/01 05:51:57;;;;;;;2.30;1.73;;;13.60;99.90;;;;;;4989381;28;20923;-72
2023/06/01 05:54:24;;;;;;;1.93;1.83;;;13.50;99.90;;;;;;4987808;28;20538;-72
2023/06/01 05:56:51;;;;;;;2.53;1.63;;;13.50;99.90;;;;;;4986320;28;20961;-72
2023/06/01 05:59:17;;;;;;;1.30;1.30;;;13.50;99.90;;;;;;4984626;28;20494;-71
2023/06/01 06:01:45;;;;;;;4.13;2.43;;;13.60;99.90;;;;;;4987769;28;20475;-71
2023/06/01 06:04:12;;;;;;;1.40;1.20;;;13.60;99.90;;;;;;4991209;28;20463;-71
2023/06/01 06:06:38;;;;;;;6.63;2.43;;;13.60;99.90;;;;;;4988973;28;20474;-71
2023/06/01 06:09:05;;;;;;;1.57;1.00;;;13.60;99.90;;;;;;4990162;28;20483;-72
2023/06/01 06:11:32;;;;;;;4.40;1.57;;;13.70;99.90;;;;;;4992288;28;20470;-71
2023/06/01 06:13:59;;;;;;;1.27;1.27;;;13.70;99.90;;;;;;4989716;28;22018;-71
2023/06/01 06:16:25;;;;;;;1.80;1.47;;;13.80;99.90;;;;;;4990696;28;20976;-71
2023/06/01 06:18:53;;;;;;;1.00;0.80;;;13.80;99.90;;;;;;4989837;28;20518;-71
2023/06/01 06:21:20;;;;;;;2.00;1.43;;;13.80;99.90;;;;;;4984249;28;20467;-71
2023/06/01 06:23:47;;;;;;;1.73;1.67;;;13.90;99.90;;;;;;4991809;28;20459;-71
2023/06/01 06:26:14;;;;;;;2.10;2.00;;;13.90;99.90;;;;;;4989183;28;20554;-72
2023/06/01 06:28:41;;;;;;;2.47;2.27;;;14.00;99.90;;;;;;4986175;28;21057;-72
2023/06/01 06:31:07;;;;;;;1.00;1.00;;;14.10;99.90;;;;;;4990351;28;20820;-72
2023/06/01 06:33:34;;;;;;;4.30;2.03;;;14.10;99.90;;;;;;4978618;28;20467;-72
2023/06/01 06:36:02;;;;;;;0.63;0.63;;;14.10;99.90;;;;;;4991641;28;20823;-71
2023/06/01 06:38:29;;;;;;;1.03;1.03;;;14.00;99.90;;;;;;4988983;28;20483;-71
2023/06/01 06:40:57;;;;;;;1.20;1.10;;;14.10;99.90;;;;;;4990625;28;20534;-71
2023/06/01 06:43:23;;;;;;;1.60;1.50;;;14.10;99.90;;;;;;4986209;28;20519;-72
2023/06/01 06:45:50;;;;;;;1.70;1.30;;;14.20;99.90;;;;;;4985448;28;20475;-72
2023/06/01 06:48:17;;;;;;;2.40;2.30;;;14.20;99.90;;;;;;4993216;28;20483;-72
2023/06/01 06:50:44;;;;;;;4.47;1.70;;;14.20;99.90;;;;;;4978317;28;20472;-72
2023/06/01 06:53:12;;;;;;;2.00;1.90;;;14.10;99.90;;;;;;4987009;28;20481;-73
2023/06/01 06:55:39;;;;;;;5.90;1.33;;;14.30;99.90;;;;;;4989341;28;20887;-72
2023/06/01 06:58:06;;;;;;;1.57;1.47;;;14.30;99.90;;;;;;4990261;28;20501;-72
2023/06/01 07:00:32;;;;;;;1.30;1.20;;;14.40;99.90;;;;;;4989393;28;20497;-72
2023/06/01 07:03:00;;;;;;;1.33;1.23;;;14.40;99.90;;;;;;4989958;28;20478;-71
2023/06/01 07:05:26;;;;;;;1.87;1.87;;;14.30;99.90;;;;;;4987129;28;20467;-72
2023/06/01 07:07:53;;;;;;;0.93;0.93;;;14.40;99.90;;;;;;4989614;28;20509;-72
2023/06/01 07:10:21;;;;;;;1.30;1.30;;;14.40;99.90;;;;;;4987418;28;20501;-73
2023/06/01 07:12:47;;;;;;;2.93;1.10;;;14.40;99.90;;;;;;4989090;28;20823;-73
2023/06/01 07:15:16;;;;;;;2.43;1.07;;;14.30;99.90;;;;;;4987884;28;20959;-73
2023/06/01 07:17:42;;;;;;;2.90;1.73;;;14.30;99.90;;;;;;4989410;28;20483;-73
2023/06/01 07:20:11;;;;;;;2.00;1.90;;;14.40;99.90;;;;;;4986699;28;20819;-70
2023/06/01 07:22:37;;;;;;;2.30;1.33;;;14.50;99.90;;;;;;4989748;28;20562;-73
2023/06/01 07:25:05;;;;;;;2.07;1.90;;;14.50;99.90;;;;;;4987230;28;20537;-74
2023/06/01 07:27:35;;;;;;;3.10;2.33;;;14.60;99.90;;;;;;4987857;28;20474;-73
2023/06/01 07:30:02;;;;;;;1.53;1.03;;;14.60;99.90;;;;;;4983526;28;20509;-73
2023/06/01 07:32:28;;;;;;;3.73;2.20;;;14.80;99.90;;;;;;4986888;28;20463;-73
2023/06/01 07:34:57;;;;;;;3.00;1.60;;;14.90;99.90;;;;;;4990137;28;20474;-74
2023/06/01 07:37:26;;;;;;;3.20;1.80;;;15.00;99.90;;;;;;4986002;28;20557;-73
2023/06/01 07:39:53;;;;;;;1.03;0.90;;;15.20;99.90;;;;;;4985676;28;20488;-73
2023/06/01 07:42:20;;;;;;;2.27;1.40;;;15.00;99.90;;;;;;4986624;28;20478;-73
2023/06/01 07:44:48;;;;;;;1.33;1.23;;;15.20;99.90;;;;;;4988706;28;20610;-73
2023/06/01 07:47:15;;;;;;;1.60;1.50;;;15.30;99.90;;;;;;4988960;28;20478;-74
2023/06/01 07:49:42;;;;;;;1.43;1.30;;;15.50;99.90;;;;;;4987196;28;20515;-73
2023/06/01 07:52:08;;;;;;;1.40;1.17;;;15.50;99.90;;;;;;4989129;28;20479;-74
2023/06/01 07:54:36;;;;;;;1.43;1.43;;;15.50;99.90;;;;;;4986198;28;20490;-74
2023/06/01 07:57:04;;;;;;;2.50;1.30;;;15.50;99.90;;;;;;4982003;28;20522;-73
2023/06/01 07:59:30;;;;;;;1.57;1.47;;;15.30;99.90;;;;;;4987999;28;20526;-73
2023/06/01 08:02:00;;;;;;;1.10;1.10;;;15.30;99.90;;;;;;4985291;28;20471;-73
2023/06/01 08:04:27;;;;;;;2.00;1.07;;;15.30;99.90;;;;;;4986093;28;20553;-74
2023/06/01 08:06:55;;;;;;;3.30;1.47;;;15.40;99.90;;;;;;4985956;28;20533;-74
2023/06/01 08:09:23;;;;;;;2.37;1.97;;;15.50;99.90;;;;;;4985214;28;20650;-74
2023/06/01 08:11:51;;;;;;;2.83;1.53;;;15.60;99.90;;;;;;4981726;28;20848;-74
2023/06/01 08:14:18;;;;;;;0.83;0.83;;;15.80;99.90;;;;;;4982959;28;20471;-74
2023/06/01 08:16:46;;;;;;;3.27;1.40;;;15.90;99.90;;;;;;4983868;28;20994;-74
2023/06/01 08:19:14;;;;;;;3.50;1.40;;;15.90;99.90;;;;;;4985826;28;20510;-74
2023/06/01 08:21:41;;;;;;;0.80;0.80;;;16.10;99.90;;;;;;4990839;28;20791;-74
2023/06/01 08:24:08;;;;;;;5.00;1.73;;;16.10;99.90;;;;;;4989430;28;20975;-73
2023/06/01 08:26:35;;;;;;;10.00;2.47;;;16.10;99.90;;;;;;4987604;28;20525;-73
2023/06/01 08:29:03;;;;;;;1.03;0.90;;;16.30;99.90;;;;;;4984448;28;20607;-73
2023/06/01 08:31:30;;;;;;;8.90;1.97;;;16.30;99.90;;;;;;4990086;28;20558;-73
2023/06/01 08:33:56;;;;;;;1.03;0.97;;;16.30;99.90;;;;;;4989546;28;20502;-73
2023/06/01 08:36:25;;;;;;;4.47;1.30;;;16.20;99.90;;;;;;4988207;28;20467;-73
2023/06/01 08:38:51;;;;;;;2.97;1.17;;;16.10;99.90;;;;;;4983863;28;20518;-73
2023/06/01 08:41:25;;;;;;;0.70;0.70;;;16.10;99.90;;;;;;4987336;28;20473;-72
2023/06/01 08:44:03;;;;;;;1.80;1.17;;;16.40;99.90;;;;;;4988555;28;20963;-72
2023/06/01 08:46:32;;;;;;;1.37;1.33;;;16.60;99.90;;;;;;4989009;28;21254;-72
2023/06/01 08:49:00;;;;;;;1.20;1.20;;;16.50;99.90;;;;;;4990852;28;20491;-73
2023/06/01 08:51:28;;;;;;;4.13;1.07;;;16.30;99.90;;;;;;4990172;28;20838;-73
2023/06/01 08:53:58;;;;;;;2.40;1.20;;;16.30;99.90;;;;;;4988902;28;20839;-73
2023/06/01 08:56:25;;;;;;;2.47;0.93;;;16.30;99.90;;;;;;4990445;28;20475;-73
2023/06/01 08:58:52;;;;;;;2.20;1.00;;;16.40;99.90;;;;;;4982912;28;20549;-73
2023/06/01 09:01:21;;;;;;;2.57;1.70;;;16.50;99.90;;;;;;4989712;28;20466;-73
2023/06/01 09:03:48;;;;;;;4.13;2.47;;;16.50;99.90;;;;;;4987554;28;20467;-72
2023/06/01 09:06:15;;;;;;;3.00;0.83;;;16.60;99.90;;;;;;4985903;28;20495;-73
2023/06/01 09:08:43;;;;;;;1.10;1.07;;;16.60;99.90;;;;;;4983380;28;20633;-74
2023/06/01 09:11:09;;;;;;;1.10;1.10;;;16.60;99.90;;;;;;4985796;28;20959;-74
2023/06/01 09:13:38;;;;;;;1.33;1.33;;;16.70;99.90;;;;;;4990641;28;20471;-74
2023/06/01 09:16:05;;;;;;;1.13;0.70;;;16.60;99.90;;;;;;4983104;28;20468;-74
2023/06/01 09:18:33;;;;;;;1.63;1.23;;;16.50;99.90;;;;;;4987084;28;21007;-73
2023/06/01 09:21:11;;;;;;;0.60;0.60;;;16.50;99.90;;;;;;4990615;28;20486;-74
2023/06/01 09:23:38;;;;;;;1.10;1.10;;;16.60;99.90;;;;;;4986504;28;20479;-73
2023/06/01 09:26:07;;;;;;;2.20;1.53;;;16.50;99.90;;;;;;4992488;28;20549;-74
2023/06/01 09:28:56;;;;;;;1.27;1.17;;;16.70;99.90;;;;;;4980055;28;20498;-73
2023/06/01 09:31:36;;;;;;;2.23;0.93;;;16.70;99.90;;;;;;4991234;28;20459;-74
2023/06/01 09:34:04;;;;;;;1.00;1.00;;;16.60;99.90;;;;;;4988830;28;20473;-73
2023/06/01 09:36:31;;;;;;;1.33;1.23;;;16.70;99.90;;;;;;4991227;28;20470;-73
2023/06/01 09:39:02;;;;;;;1.50;1.50;;;16.90;99.90;;;;;;4992699;28;20486;-73
2023/06/01 09:41:45;;;;;;;0.70;0.70;;;17.00;99.90;;;;;;4992477;28;20601;-73
2023/06/01 09:44:12;;;;;;;1.90;1.03;;;17.20;99.90;;;;;;4990041;28;20466;-72
2023/06/01 09:46:47;;;;;;;2.93;1.53;;;17.20;99.90;;;;;;4982764;28;20463;-73
2023/06/01 09:49:19;;;;;;;1.00;1.00;;;17.30;99.90;;;;;;4986797;28;20553;-73
2023/06/01 09:51:46;;;;;;;0.97;0.97;;;17.20;99.90;;;;;;4981357;28;20546;-73
2023/06/01 09:54:23;;;;;;;2.17;0.90;;;17.20;99.90;;;;;;4986142;28;20538;-73
2023/06/01 09:56:51;;;;;;;1.60;0.90;;;17.10;99.90;;;;;;4986016;28;20536;-73
2023/06/01 09:59:18;;;;;;;1.60;1.10;;;16.90;99.90;;;;;;4989420;28;20819;-73
2023/06/01 10:01:49;;;;;;;0.77;0.77;;;16.90;99.90;;;;;;4986366;28;20479;-72
2023/06/01 10:04:22;;;;;;;1.10;1.00;;;17.10;99.90;;;;;;4985873;28;20872;-72
2023/06/01 10:06:51;;;;;;;1.57;1.47;;;17.30;99.90;;;;;;4990351;28;20470;-72
2023/06/01 10:09:19;;;;;;;1.70;0.80;;;17.30;99.90;;;;;;4982629;28;20479;-71
2023/06/01 10:11:47;;;;;;;8.23;1.60;;;17.40;99.90;;;;;;4986928;28;20832;-71
2023/06/01 10:14:15;;;;;;;1.03;1.03;;;17.50;99.90;;;;;;4985006;28;20901;-69
2023/06/01 10:16:42;;;;;;;3.40;1.43;;;17.50;99.90;;;;;;4985689;28;20463;-69
2023/06/01 10:19:09;;;;;;;1.73;1.63;;;17.60;99.90;;;;;;4988767;28;20553;-71
2023/06/01 10:21:36;;;;;;;3.83;1.63;;;17.70;99.90;;;;;;4989526;28;20558;-71
2023/06/01 10:24:04;;;;;;;0.93;0.93;;;17.60;99.90;;;;;;4983441;28;20493;-71
2023/06/01 10:26:37;;;;;;;1.00;1.00;;;17.50;99.90;;;;;;4987444;28;20521;-73
2023/06/01 10:29:04;;;;;;;1.03;1.03;;;17.50;99.90;;;;;;4979775;28;20572;-72
2023/06/01 10:31:36;;;;;;;1.40;1.30;;;17.50;99.90;;;;;;4987477;28;20497;-72
2023/06/01 10:34:04;;;;;;;2.20;2.00;;;17.40;99.90;;;;;;4987098;28;20474;-73
2023/06/01 10:37:08;;;;;;;1.23;1.10;;;17.40;99.90;;;;;;4989462;23;21062;-70
2023/06/01 10:39:35;;;;;;;0.63;0.63;;;17.30;99.90;;;;;;4966163;28;20487;-70
2023/06/01 10:42:47;;;;;;;5.17;1.63;;;17.40;99.90;;;;;;4973145;28;20471;-71
2023/06/01 10:45:47;;;;;;;6.23;0.80;;;17.50;99.90;;;;;;4906003;29;21038;-70
2023/06/01 10:48:15;;;;;;;0.80;0.80;;;17.80;99.90;;;;;;4893106;29;20476;-70
2023/06/01 10:50:43;;;;;;;3.37;0.70;;;17.70;99.90;;;;;;4891852;29;20534;-70
2023/06/01 10:53:26;;;;;;;2.00;0.87;;;17.60;99.90;;;;;;4916410;28;20469;-71
2023/06/01 10:56:18;;;;;;;4.83;1.67;;;17.70;99.90;;;;;;4945374;29;20559;-71
2023/06/01 10:58:45;;;;;;;0.50;0.50;;;17.90;99.90;;;;;;4953996;28;20543;-71
2023/06/01 11:01:20;;;;;;;7.30;1.73;;;18.10;99.90;;;;;;4952953;29;20469;-71
2023/06/01 11:03:50;;;;;;;0.50;0.50;;;17.90;99.90;;;;;;4953354;28;20976;-70
2023/06/01 11:06:31;;;;;;;0.73;0.73;;;17.90;99.90;;;;;;4949455;28;20567;-72
2023/06/01 11:08:59;;;;;;;0.77;0.77;;;17.90;99.90;;;;;;4953537;29;20496;-71
2023/06/01 11:12:00;;;;;;;1.00;1.00;;;18.00;99.90;;;;;;4950524;28;20468;-71
2023/06/01 11:14:29;;;;;;;1.73;1.73;;;18.00;99.90;;;;;;4942531;29;20923;-71
2023/06/01 11:16:56;;;;;;;2.97;1.53;;;17.90;99.90;;;;;;4946604;28;21098;-71
2023/06/01 11:19:25;;;;;;;6.03;1.20;;;17.60;99.90;;;;;;4949796;28;20904;-72
2023/06/01 11:21:58;;;;;;;0.90;0.90;;;17.60;99.90;;;;;;4948137;28;20555;-71
2023/06/01 11:24:33;;;;;;;1.90;0.60;;;17.50;99.90;;;;;;4945094;28;20480;-71
2023/06/01 11:27:01;;;;;;;1.50;1.40;;;17.30;99.90;;;;;;4952058;28;20496;-71
2023/06/01 11:29:28;;;;;;;0.93;0.93;;;17.40;99.90;;;;;;4950819;28;20547;-71
2023/06/01 11:31:56;;;;;;;0.80;0.80;;;17.50;99.90;;;;;;4953075;28;20817;-71
2023/06/01 11:34:32;;;;;;;1.40;1.30;;;17.50;99.90;;;;;;4950536;28;20627;-74
2023/06/01 11:36:59;;;;;;;0.97;0.97;;;17.40;99.90;;;;;;4946513;29;20500;-71
2023/06/01 11:39:28;;;;;;;1.03;1.03;;;17.50;99.90;;;;;;4940611;29;20536;-71
2023/06/01 11:42:08;;;;;;;1.50;1.40;;;17.80;99.90;;;;;;4953732;29;20464;-71
2023/06/01 11:44:37;;;;;;;3.80;1.67;;;17.80;99.90;;;;;;4945437;28;20476;-71
2023/06/01 11:47:05;;;;;;;0.67;0.67;;;17.50;99.90;;;;;;4950170;28;21015;-71
2023/06/01 11:49:41;;;;;;;3.20;1.17;;;17.50;99.90;;;;;;4949640;29;21391;-71
2023/06/01 11:52:10;;;;;;;2.87;1.23;;;17.40;99.90;;;;;;4948881;28;20984;-71
2023/06/01 11:54:37;;;;;;;1.27;0.93;;;17.40;99.90;;;;;;4948039;29;20495;-71
2023/06/01 11:57:05;;;;;;;1.97;1.77;;;17.60;99.90;;;;;;4950363;28;20488;-71
2023/06/01 11:59:38;;;;;;;1.30;1.20;;;17.60;99.90;;;;;;4945911;28;21471;-71
2023/06/01 12:02:16;;;;;;;1.03;0.87;;;17.60;99.90;;;;;;4951051;29;20547;-72
2023/06/01 12:04:55;;;;;;;1.83;0.97;;;17.50;99.90;;;;;;4950119;29;20984;-74
2023/06/01 12:07:21;;;;;;;0.90;0.83;;;17.60;99.90;;;;;;4948913;29;20469;-70
2023/06/01 12:09:48;;;;;;;0.60;0.60;;;17.80;99.90;;;;;;4950605;28;20512;-71
2023/06/01 12:12:15;;;;;;;0.87;0.87;;;17.90;99.90;;;;;;4950784;28;20468;-69
2023/06/01 12:14:43;;;;;;;3.43;1.50;;;17.90;99.90;;;;;;4951104;29;20546;-70
2023/06/01 12:17:12;;;;;;;1.90;1.80;;;17.90;99.90;;;;;;4953198;29;20461;-72
2023/06/01 12:19:47;;;;;;;4.03;1.40;;;17.70;99.90;;;;;;4949388;28;20835;-70
2023/06/01 12:22:14;;;;;;;1.30;1.30;;;17.90;99.90;;;;;;4952483;28;20511;-73
2023/06/01 12:24:43;;;;;;;0.73;0.70;;;17.80;99.90;;;;;;4947862;28;20500;-70
2023/06/01 12:27:14;;;;;;;1.07;1.07;;;17.90;99.90;;;;;;4952365;29;20567;-72
2023/06/01 12:29:42;;;;;;;1.60;1.50;;;17.80;99.90;;;;;;4950586;28;20564;-70
2023/06/01 12:32:10;;;;;;;1.63;0.77;;;17.90;99.90;;;;;;4952146;29;20491;-72
2023/06/01 12:34:37;;;;;;;1.07;1.07;;;17.90;99.90;;;;;;4951543;29;20500;-72
2023/06/01 12:37:16;;;;;;;1.67;1.57;;;17.80;99.90;;;;;;4952734;29;20496;-72
2023/06/01 12:39:43;;;;;;;1.87;1.67;;;17.80;99.90;;;;;;4950886;28;20520;-72
2023/06/01 12:42:11;;;;;;;3.57;1.37;;;17.80;99.90;;;;;;4952081;29;20509;-71
2023/06/01 12:44:39;;;;;;;1.23;1.23;;;18.00;99.90;;;;;;4951451;28;20547;-72
2023/06/01 12:47:07;;;;;;;1.87;1.80;;;17.90;99.90;;;;;;4949825;28;20492;-72
2023/06/01 12:49:34;;;;;;;1.20;1.10;;;18.00;99.90;;;;;;4951556;28;20465;-72
2023/06/01 12:52:01;;;;;;;1.40;0.90;;;18.10;99.90;;;;;;4952053;29;20473;-72
2023/06/01 12:54:29;;;;;;;1.10;1.10;;;18.20;99.90;;;;;;4948540;28;20537;-72
2023/06/01 12:56:56;;;;;;;1.00;1.00;;;18.40;99.90;;;;;;4947846;28;20492;-72
2023/06/01 12:59:23;;;;;;;2.83;1.00;;;18.30;99.90;;;;;;4950958;29;20519;-72
2023/06/01 13:01:49;;;;;;;1.93;1.83;;;18.20;99.90;;;;;;4952685;28;20484;-71
2023/06/01 13:04:16;;;;;;;1.33;0.90;;;18.10;99.90;;;;;;4951314;29;20499;-72
2023/06/01 13:06:44;;;;;;;1.60;1.33;;;18.10;99.90;;;;;;4941759;28;20599;-72
2023/06/01 13:09:11;;;;;;;1.53;1.33;;;18.40;99.90;;;;;;4946869;28;20473;-72
2023/06/01 13:11:39;;;;;;;1.07;1.03;;;18.60;99.90;;;;;;4952754;28;20475;-72
2023/06/01 13:14:05;;;;;;;3.97;0.90;;;18.40;99.90;;;;;;4958741;29;20461;-70
2023/06/01 13:16:32;;;;;;;2.50;1.23;;;18.10;99.90;;;;;;4954927;28;20491;-72
2023/06/01 13:18:59;;;;;;;1.17;1.17;;;17.80;99.90;;;;;;4951560;29;20800;-72
2023/06/01 13:21:25;;;;;;;2.60;2.20;;;17.70;99.90;;;;;;4957162;29;20553;-72
2023/06/01 13:23:52;;;;;;;1.80;0.90;;;17.60;99.90;;;;;;4950502;29;20476;-72
2023/06/01 13:26:19;;;;;;;0.93;0.93;;;17.80;99.90;;;;;;4956602;28;20496;-73
2023/06/01 13:28:47;;;;;;;1.20;1.20;;;17.90;99.90;;;;;;4957794;28;20491;-71
2023/06/01 13:31:14;;;;;;;1.57;1.17;;;17.90;99.90;;;;;;4958295;28;20464;-72
2023/06/01 13:33:40;;;;;;;1.10;1.10;;;18.00;99.90;;;;;;4941763;29;20469;-71
2023/06/01 13:36:07;;;;;;;4.43;1.17;;;18.10;99.90;;;;;;4956364;28;21583;-72
2023/06/01 13:38:34;;;;;;;1.93;1.40;;;18.10;99.90;;;;;;4951315;28;20473;-71
2023/06/01 13:41:00;;;;;;;13.57;1.30;;;18.00;99.90;;;;;;4955866;29;20534;-71
2023/06/01 13:43:27;;;;;;;0.73;0.73;;;17.90;99.90;;;;;;4947504;29;20453;-72
2023/06/01 13:45:55;;;;;;;4.20;1.13;;;17.80;99.90;;;;;;4955164;28;20492;-72
2023/06/01 13:48:22;;;;;;;1.00;1.00;;;17.80;99.90;;;;;;4959211;28;20622;-72
2023/06/01 13:50:49;;;;;;;3.60;1.37;;;17.80;99.90;;;;;;4958921;28;20469;-72
2023/06/01 13:53:15;;;;;;;1.13;0.87;;;17.80;99.90;;;;;;4953638;28;21113;-71
2023/06/01 13:55:42;;;;;;;0.90;0.90;;;17.90;99.90;;;;;;4953806;28;20914;-72
2023/06/01 13:58:09;;;;;;;1.17;1.17;;;17.70;99.90;;;;;;4958409;29;20471;-71
2023/06/01 14:00:35;;;;;;;4.77;1.20;;;17.70;99.90;;;;;;4954731;28;21199;-71
2023/06/01 14:03:04;;;;;;;2.30;0.87;;;17.70;99.90;;;;;;4953690;28;20838;-72
2023/06/01 14:05:30;;;;;;;1.23;1.23;;;17.80;99.90;;;;;;4957543;28;20483;-72
2023/06/01 14:07:57;;;;;;;2.90;1.00;;;17.80;99.90;;;;;;4958753;29;20506;-72
2023/06/01 14:10:23;;;;;;;0.80;0.80;;;17.80;99.90;;;;;;4958075;28;20527;-72
2023/06/01 14:12:50;;;;;;;0.90;0.90;;;17.90;99.90;;;;;;4957799;28;20472;-71
2023/06/01 14:15:17;;;;;;;2.20;0.90;;;17.80;99.90;;;;;;4956498;28;20571;-71
2023/06/01 14:17:44;;;;;;;0.83;0.83;;;18.00;99.90;;;;;;4958540;28;20464;-72
2023/06/01 14:20:12;;;;;;;0.53;0.53;;;18.10;99.90;;;;;;4957182;28;20480;-72
2023/06/01 14:22:39;;;;;;;1.40;0.40;;;17.90;99.90;;;;;;4954887;28;20471;-71
2023/06/01 14:25:07;;;;;;;1.80;0.70;;;17.80;99.90;;;;;;4951474;28;20609;-71
2023/06/01 14:27:34;;;;;;;17.10;1.00;;;17.80;99.90;;;;;;4951621;28;20491;-72
2023/06/01 14:30:03;;;;;;;6.50;0.97;;;17.70;99.90;;;;;;4944840;28;20469;-72
2023/06/01 14:32:29;;;;;;;0.77;0.77;;;17.70;99.90;;;;;;4950653;29;21009;-72
2023/06/01 14:34:56;;;;;;;0.40;0.40;;;17.80;99.90;;;;;;4954073;28;20885;-72
2023/06/01 14:37:24;;;;;;;0.67;0.67;;;18.00;99.90;;;;;;4955117;29;20475;-72
2023/06/01 14:39:51;;;;;;;1.00;0.77;;;18.10;99.90;;;;;;4953330;28;20593;-71
2023/06/01 14:42:18;;;;;;;2.53;2.33;;;18.00;99.90;;;;;;4953538;29;21024;-72
2023/06/01 14:44:45;;;;;;;4.03;1.73;;;18.00;99.90;;;;;;4952248;28;20476;-72
2023/06/01 14:47:13;;;;;;;0.93;0.80;;;18.10;99.90;;;;;;4954411;29;20472;-72
2023/06/01 14:49:40;;;;;;;1.03;1.03;;;18.30;99.90;;;;;;4953912;28;20507;-72
2023/06/01 14:52:07;;;;;;;0.50;0.50;;;18.50;99.90;;;;;;4953879;29;21099;-72
2023/06/01 14:54:35;;;;;;;0.87;0.87;;;18.70;99.90;;;;;;4953968;29;20523;-72
2023/06/01 14:57:01;;;;;;;0.70;0.70;;;18.70;99.90;;;;;;4954918;28;20508;-72
2023/06/01 14:59:28;;;;;;;0.60;0.60;;;18.60;99.90;;;;;;4952307;28;20954;-72
2023/06/01 15:01:54;;;;;;;1.10;1.00;;;18.50;99.90;;;;;;4954005;29;20480;-72
2023/06/01 15:04:21;;;;;;;0.90;0.90;;;18.60;99.90;;;;;;4952534;28;20476;-72
2023/06/01 15:06:48;;;;;;;0.37;0.37;;;18.70;99.90;;;;;;4953882;28;20998;-72
2023/06/01 15:09:14;;;;;;;0.90;0.70;;;18.50;99.90;;;;;;4953849;28;20523;-73
2023/06/01 15:11:42;;;;;;;4.00;0.87;;;18.80;99.90;;;;;;4953214;28;20468;-72
2023/06/01 15:14:09;;;;;;;0.60;0.60;;;18.90;99.90;;;;;;4952311;29;20527;-72
2023/06/01 15:16:36;;;;;;;0.37;0.30;;;18.90;99.90;;;;;;4953123;28;20484;-71
2023/06/01 15:19:02;;;;;;;0.50;0.40;;;18.50;99.90;;;;;;4952533;28;20535;-72
2023/06/01 15:21:29;;;;;;;0.63;0.63;;;18.40;99.90;;;;;;4953619;28;20848;-71
2023/06/01 15:23:56;;;;;;;0.97;0.97;;;18.50;99.90;;;;;;4948162;29;20498;-71
2023/06/01 15:26:22;;;;;;;0.50;0.50;;;18.50;99.90;;;;;;4953582;28;20515;-72
2023/06/01 15:28:50;;;;;;;0.70;0.70;;;18.50;99.90;;;;;;4954041;29;20469;-72
2023/06/01 15:31:17;;;;;;;8.23;0.80;;;18.40;99.90;;;;;;4952153;28;20524;-71
2023/06/01 15:33:43;;;;;;;11.33;1.70;;;18.30;99.90;;;;;;4950877;29;20540;-72
2023/06/01 15:36:10;;;;;;;1.47;0.93;;;18.50;99.90;;;;;;4941120;28;20496;-71
2023/06/01 15:38:37;;;;;;;2.57;1.93;;;18.50;99.90;;;;;;4947878;28;20551;-72
2023/06/01 15:41:04;;;;;;;0.60;0.60;;;18.40;99.90;;;;;;4949510;28;20488;-72
2023/06/01 15:43:30;;;;;;;0.33;0.33;;;18.30;99.90;;;;;;4947611;29;20472;-72
2023/06/01 15:45:58;;;;;;;0.40;0.40;;;18.30;99.90;;;;;;4944360;28;20517;-71
2023/06/01 15:48:25;;;;;;;0.33;0.33;;;18.20;99.90;;;;;;4950061;28;20523;-72
2023/06/01 15:50:52;;;;;;;1.33;0.93;;;18.30;99.90;;;;;;4944628;29;20585;-72
2023/06/01 15:53:19;;;;;;;5.83;0.70;;;18.30;99.90;;;;;;4952655;29;20531;-72
2023/06/01 15:55:46;;;;;;;1.97;0.80;;;18.30;99.90;;;;;;4952167;28;20579;-71
2023/06/01 15:58:13;;;;;;;2.17;0.90;;;18.40;99.90;;;;;;4952195;28;20476;-72
2023/06/01 16:00:40;;;;;;;3.90;0.80;;;18.50;99.90;;;;;;4946233;28;20490;-72
2023/06/01 16:03:08;;;;;;;1.70;1.03;;;18.50;99.90;;;;;;4942463;28;20492;-70
2023/06/01 16:05:35;;;;;;;1.67;1.37;;;18.30;99.90;;;;;;4942102;28;20509;-70
2023/06/01 16:08:01;;;;;;;2.33;0.80;;;18.20;99.90;;;;;;4943910;28;20472;-71
2023/06/01 16:10:29;;;;;;;0.83;0.60;;;18.00;99.90;;;;;;4942724;28;20557;-71
2023/06/01 16:12:56;;;;;;;1.10;1.10;;;18.00;99.90;;;;;;4944968;28;20478;-71
2023/06/01 16:15:23;;;;;;;2.10;0.87;;;17.70;99.90;;;;;;4942151;28;20497;-71
2023/06/01 16:17:50;;;;;;;3.60;1.07;;;17.70;99.90;;;;;;4948864;28;20495;-71
2023/06/01 16:20:18;;;;;;;0.50;0.50;;;17.60;99.90;;;;;;4943903;29;20469;-71
2023/06/01 16:22:44;;;;;;;7.40;1.60;;;17.50;99.90;;;;;;4948147;28;20481;-70
2023/06/01 16:25:12;;;;;;;4.73;0.83;;;17.50;99.90;;;;;;4951299;29;20516;-71
2023/06/01 16:27:38;;;;;;;0.70;0.70;;;17.40;99.90;;;;;;4951851;29;20536;-71
2023/06/01 16:30:06;;;;;;;5.00;0.83;;;17.40;99.90;;;;;;4944974;28;20503;-70
2023/06/01 16:32:34;;;;;;;5.37;1.67;;;17.30;99.90;;;;;;4949013;29;20958;-71
2023/06/01 16:35:01;;;;;;;1.70;1.50;;;17.10;99.90;;;;;;4949092;29;20475;-71
2023/06/01 16:37:29;;;;;;;1.40;1.10;;;17.10;99.90;;;;;;4943603;28;20457;-71
2023/06/01 16:39:56;;;;;;;8.03;1.50;;;17.10;99.90;;;;;;4950737;28;20472;-71
2023/06/01 16:42:22;;;;;;;2.00;0.80;;;17.10;99.90;;;;;;4947368;28;21008;-72
2023/06/01 16:44:49;;;;;;;1.00;1.00;;;17.00;99.90;;;;;;4949284;29;20469;-70
2023/06/01 16:47:15;;;;;;;0.40;0.40;;;16.90;99.90;;;;;;4948968;28;20551;-70
2023/06/01 16:49:42;;;;;;;0.30;0.30;;;16.80;99.90;;;;;;4948544;28;20956;-71
2023/06/01 16:52:09;;;;;;;3.30;0.70;;;16.70;99.90;;;;;;4947243;28;20468;-71